Time;durP1;ratioP1;P1;durP2;ratioP2;P2;SDS_P1;SDS_P2;PMS_P1;PMS_P2;Temp;Humidity;BMP_temperature;BMP_pressure;BME280_temperature;BME280_humidity;BME280_pressure;Samples;Min_cycle;Max_cycle;Signal;HPM_P1;HPM_P2
2022/02/16 00:00:05;;;;;;;1.50;0.90;;;8.10;97.60;;;;;;5016189;28;20939;-79
2022/02/16 00:02:41;;;;;;;1.50;0.80;;;8.10;97.60;;;;;;5031161;28;20936;-79
2022/02/16 00:05:08;;;;;;;1.50;1.40;;;8.10;97.50;;;;;;5035999;28;20409;-78
2022/02/16 00:07:35;;;;;;;1.27;0.77;;;8.10;97.40;;;;;;5017660;28;20421;-78
2022/02/16 00:10:01;;;;;;;2.07;0.80;;;8.10;97.40;;;;;;5001777;28;20496;-77
2022/02/16 00:12:27;;;;;;;1.67;0.67;;;8.10;97.40;;;;;;5017639;28;20417;-79
2022/02/16 00:14:53;;;;;;;1.23;1.00;;;8.20;97.50;;;;;;5016418;28;20465;-79
2022/02/16 00:17:19;;;;;;;1.17;0.67;;;8.20;97.40;;;;;;5036879;28;20489;-78
2022/02/16 00:19:44;;;;;;;1.63;0.70;;;8.10;97.40;;;;;;5036656;28;20281;-78
2022/02/16 00:22:10;;;;;;;1.53;0.70;;;8.20;97.50;;;;;;5003293;28;20541;-78
2022/02/16 00:24:36;;;;;;;1.23;0.67;;;8.20;97.50;;;;;;5027182;28;20171;-78
2022/02/16 00:27:01;;;;;;;1.77;0.83;;;8.20;97.50;;;;;;5016088;28;20536;-78
2022/02/16 00:29:28;;;;;;;1.30;0.60;;;8.20;97.60;;;;;;4995829;28;20194;-78
2022/02/16 00:31:53;;;;;;;3.40;0.90;;;8.20;97.60;;;;;;5013657;28;20489;-77
2022/02/16 00:34:21;;;;;;;1.43;0.70;;;8.20;97.60;;;;;;5013500;28;20191;-78
2022/02/16 00:36:47;;;;;;;1.20;0.70;;;8.20;97.60;;;;;;5031394;28;20463;-77
2022/02/16 00:39:13;;;;;;;1.67;0.80;;;8.20;97.70;;;;;;5010182;28;20406;-77
2022/02/16 00:41:39;;;;;;;1.37;0.50;;;8.20;97.60;;;;;;5030335;28;20225;-78
2022/02/16 00:44:05;;;;;;;2.20;1.13;;;8.20;97.70;;;;;;5004892;28;20503;-78
2022/02/16 00:46:31;;;;;;;2.30;1.33;;;8.20;97.60;;;;;;5022753;28;20228;-78
2022/02/16 00:48:57;;;;;;;1.10;0.60;;;8.20;97.70;;;;;;5017802;28;20413;-77
2022/02/16 00:51:22;;;;;;;1.10;0.80;;;8.20;97.70;;;;;;5040797;28;20226;-78
2022/02/16 00:53:48;;;;;;;2.63;0.80;;;8.20;97.70;;;;;;5026806;28;20163;-78
2022/02/16 00:56:14;;;;;;;0.90;0.57;;;8.20;97.70;;;;;;5016267;28;20205;-77
2022/02/16 00:58:40;;;;;;;0.90;0.60;;;8.20;97.70;;;;;;5032533;28;20167;-78
2022/02/16 01:01:06;;;;;;;0.90;0.57;;;8.30;97.80;;;;;;5012258;28;20210;-78
2022/02/16 01:03:31;;;;;;;1.23;0.60;;;8.30;97.70;;;;;;4999940;28;20167;-78
2022/02/16 01:06:00;;;;;;;1.77;0.70;;;8.30;97.70;;;;;;5001278;28;20186;-78
2022/02/16 01:08:26;;;;;;;1.10;0.70;;;8.30;97.70;;;;;;5017857;28;20409;-77
2022/02/16 01:10:52;;;;;;;2.93;0.70;;;8.30;97.60;;;;;;5017377;28;20242;-78
2022/02/16 01:13:19;;;;;;;1.10;0.70;;;8.30;97.60;;;;;;5017389;28;20409;-78
2022/02/16 01:15:45;;;;;;;0.90;0.50;;;8.30;97.60;;;;;;5017036;28;20529;-78
2022/02/16 01:18:10;;;;;;;2.60;0.80;;;8.30;97.60;;;;;;5013574;28;20643;-78
2022/02/16 01:20:42;;;;;;;1.27;0.50;;;8.30;97.60;;;;;;5026703;28;20560;-77
2022/02/16 01:23:11;;;;;;;0.90;0.60;;;8.30;97.60;;;;;;5022649;28;20413;-78
2022/02/16 01:25:39;;;;;;;1.10;0.60;;;8.30;97.60;;;;;;5019475;28;20417;-76
2022/02/16 01:28:12;;;;;;;1.37;0.70;;;8.30;97.70;;;;;;5016368;28;20445;-77
2022/02/16 01:30:40;;;;;;;1.30;0.50;;;8.30;97.70;;;;;;4998849;28;20495;-77
2022/02/16 01:33:15;;;;;;;1.77;0.50;;;8.30;97.70;;;;;;4999275;28;20417;-79
2022/02/16 01:35:48;;;;;;;0.90;0.50;;;8.30;97.70;;;;;;5014478;28;20456;-78
2022/02/16 01:38:14;;;;;;;0.90;0.50;;;8.30;97.80;;;;;;5014998;28;20500;-77
2022/02/16 01:40:46;;;;;;;1.77;0.80;;;8.30;97.80;;;;;;5002725;28;20421;-78
2022/02/16 01:43:11;;;;;;;1.83;0.70;;;8.30;97.80;;;;;;5000532;28;20417;-77
2022/02/16 01:45:41;;;;;;;0.70;0.40;;;8.30;97.80;;;;;;5031236;28;20241;-77
2022/02/16 01:48:09;;;;;;;1.00;0.50;;;8.40;97.90;;;;;;5034391;28;20425;-76
2022/02/16 01:50:36;;;;;;;0.80;0.50;;;8.40;97.90;;;;;;5013463;28;20506;-77
2022/02/16 01:53:03;;;;;;;1.00;0.50;;;8.40;97.90;;;;;;5031835;28;20798;-77
2022/02/16 01:55:31;;;;;;;1.77;0.60;;;8.40;97.80;;;;;;5013086;28;20453;-78
2022/02/16 01:58:00;;;;;;;1.00;0.50;;;8.40;97.80;;;;;;5013389;28;20477;-78
2022/02/16 02:00:57;;;;;;;1.20;0.60;;;8.40;97.80;;;;;;5011604;28;20507;-78
2022/02/16 02:03:23;;;;;;;0.70;0.43;;;8.40;97.80;;;;;;5012387;28;20457;-78
2022/02/16 02:05:57;;;;;;;1.63;0.60;;;8.40;97.70;;;;;;4994586;28;20512;-78
2022/02/16 02:08:25;;;;;;;0.90;0.60;;;8.40;97.80;;;;;;4994341;28;20445;-78
2022/02/16 02:10:54;;;;;;;1.00;0.47;;;8.40;97.70;;;;;;4994703;28;20191;-77
2022/02/16 02:13:20;;;;;;;0.90;0.60;;;8.40;97.80;;;;;;4994034;28;20516;-77
2022/02/16 02:15:57;;;;;;;1.20;0.50;;;8.40;97.90;;;;;;4997716;28;20481;-78
2022/02/16 02:18:30;;;;;;;0.80;0.50;;;8.40;97.80;;;;;;4996575;28;20564;-77
2022/02/16 02:20:56;;;;;;;1.00;0.50;;;8.40;97.90;;;;;;5014923;28;20990;-78
2022/02/16 02:23:22;;;;;;;0.80;0.50;;;8.40;97.90;;;;;;5012679;28;20410;-78
2022/02/16 02:25:56;;;;;;;0.70;0.40;;;8.40;98.00;;;;;;5014971;28;20582;-77
2022/02/16 02:28:24;;;;;;;0.83;0.50;;;8.50;98.00;;;;;;5015256;28;20198;-77
2022/02/16 02:30:53;;;;;;;0.80;0.50;;;8.50;98.10;;;;;;5038469;28;20420;-78
2022/02/16 02:33:23;;;;;;;0.70;0.40;;;8.50;98.10;;;;;;5015105;28;20766;-78
2022/02/16 02:35:51;;;;;;;0.90;0.60;;;8.50;98.20;;;;;;5017813;28;20461;-77
2022/02/16 02:38:17;;;;;;;0.90;0.53;;;8.50;98.10;;;;;;5001650;28;20849;-77
2022/02/16 02:40:43;;;;;;;0.80;0.50;;;8.50;98.20;;;;;;4998924;28;20446;-77
2022/02/16 02:43:09;;;;;;;1.67;0.60;;;8.50;98.30;;;;;;5005246;28;20671;-77
2022/02/16 02:45:43;;;;;;;1.30;0.50;;;8.50;98.30;;;;;;5014455;28;20440;-78
2022/02/16 02:48:08;;;;;;;1.57;0.67;;;8.50;98.40;;;;;;5032906;28;20413;-78
2022/02/16 02:50:34;;;;;;;1.23;0.60;;;8.50;98.50;;;;;;5032907;28;20194;-77
2022/02/16 02:53:00;;;;;;;1.23;0.60;;;8.50;98.50;;;;;;5034781;28;20170;-77
2022/02/16 02:55:26;;;;;;;1.13;0.60;;;8.50;98.60;;;;;;5036376;28;20212;-77
2022/02/16 02:57:52;;;;;;;0.90;0.60;;;8.50;98.70;;;;;;5021562;28;20437;-78
2022/02/16 03:00:18;;;;;;;1.63;0.90;;;8.50;98.80;;;;;;5041013;28;20462;-78
2022/02/16 03:02:48;;;;;;;0.90;0.50;;;8.50;98.80;;;;;;5040807;28;20420;-78
2022/02/16 03:05:14;;;;;;;1.30;0.60;;;8.50;98.80;;;;;;5058347;28;20480;-78
2022/02/16 03:07:40;;;;;;;1.03;0.60;;;8.50;98.80;;;;;;5046466;28;20428;-79
2022/02/16 03:10:07;;;;;;;3.70;0.67;;;8.50;99.00;;;;;;5024244;28;20206;-78
2022/02/16 03:12:32;;;;;;;1.53;0.50;;;8.50;99.10;;;;;;5019074;28;20409;-77
2022/02/16 03:14:58;;;;;;;1.20;0.50;;;8.50;98.90;;;;;;5031119;28;20460;-77
2022/02/16 03:17:28;;;;;;;1.10;0.67;;;8.50;98.90;;;;;;5023402;28;20664;-78
2022/02/16 03:19:55;;;;;;;1.93;0.60;;;8.50;98.90;;;;;;5027787;28;20178;-77
2022/02/16 03:22:21;;;;;;;1.80;0.60;;;8.50;98.90;;;;;;5026263;28;20924;-77
2022/02/16 03:24:47;;;;;;;1.27;0.77;;;8.50;98.90;;;;;;5021184;28;20178;-77
2022/02/16 03:27:13;;;;;;;2.70;0.80;;;8.50;98.90;;;;;;5022001;28;20201;-77
2022/02/16 03:30:00;;;;;;;1.80;0.60;;;8.60;98.90;;;;;;5021290;28;20437;-78
2022/02/16 03:32:27;;;;;;;1.47;0.70;;;8.60;98.80;;;;;;5019262;28;20424;-78
2022/02/16 03:34:53;;;;;;;1.30;0.50;;;8.60;98.70;;;;;;5002588;28;20465;-78
2022/02/16 03:37:22;;;;;;;0.90;0.57;;;8.60;98.60;;;;;;5017623;28;20254;-78
2022/02/16 03:39:48;;;;;;;1.10;0.67;;;8.60;98.50;;;;;;5007971;28;20998;-78
2022/02/16 03:42:14;;;;;;;0.90;0.50;;;8.70;98.60;;;;;;4998318;28;20421;-78
2022/02/16 03:44:43;;;;;;;1.00;0.50;;;8.70;98.40;;;;;;5016849;28;20554;-78
2022/02/16 03:47:11;;;;;;;1.03;0.50;;;8.70;98.30;;;;;;5018437;28;20444;-78
2022/02/16 03:49:37;;;;;;;0.90;0.70;;;8.70;98.20;;;;;;5015056;28;20448;-78
2022/02/16 03:52:03;;;;;;;1.27;0.50;;;8.70;98.20;;;;;;5018347;28;20412;-78
2022/02/16 03:54:29;;;;;;;0.70;0.40;;;8.70;98.10;;;;;;5018701;28;20587;-79
2022/02/16 03:56:55;;;;;;;0.80;0.50;;;8.80;98.10;;;;;;5027983;28;20401;-79
2022/02/16 03:59:21;;;;;;;0.83;0.47;;;8.80;98.00;;;;;;5038987;28;20167;-77
2022/02/16 04:02:10;;;;;;;1.20;0.60;;;8.80;97.90;;;;;;5033326;28;20849;-79
2022/02/16 04:04:36;;;;;;;0.70;0.40;;;8.80;97.90;;;;;;5014126;28;20421;-77
2022/02/16 04:07:02;;;;;;;1.40;0.50;;;8.80;97.70;;;;;;5028174;28;20414;-79
2022/02/16 04:09:28;;;;;;;0.90;0.50;;;8.90;97.70;;;;;;5026085;28;20679;-77
2022/02/16 04:11:53;;;;;;;0.80;0.50;;;8.90;97.60;;;;;;5016328;28;20499;-77
2022/02/16 04:14:20;;;;;;;0.90;0.57;;;8.90;97.40;;;;;;5028009;28;20221;-79
2022/02/16 04:16:46;;;;;;;1.30;0.57;;;8.90;97.40;;;;;;5035305;28;20429;-78
2022/02/16 04:19:12;;;;;;;2.50;0.50;;;8.90;97.40;;;;;;5031561;28;20472;-77
2022/02/16 04:21:39;;;;;;;0.90;0.50;;;8.90;97.40;;;;;;5020540;28;20451;-78
2022/02/16 04:24:05;;;;;;;0.80;0.50;;;8.90;97.50;;;;;;5042285;28;20472;-78
2022/02/16 04:26:31;;;;;;;0.80;0.50;;;8.90;97.40;;;;;;5008714;28;20494;-77
2022/02/16 04:28:56;;;;;;;2.07;1.17;;;8.90;97.40;;;;;;5039780;28;20155;-78
2022/02/16 04:31:28;;;;;;;0.90;0.60;;;8.90;97.50;;;;;;5006198;28;20609;-77
2022/02/16 04:33:54;;;;;;;0.90;0.50;;;8.90;97.60;;;;;;5032619;28;20409;-77
2022/02/16 04:36:26;;;;;;;1.00;0.50;;;8.90;97.50;;;;;;5033952;28;20837;-78
2022/02/16 04:38:58;;;;;;;1.80;0.50;;;9.00;97.60;;;;;;5015989;28;20786;-78
2022/02/16 04:41:24;;;;;;;1.40;0.60;;;8.90;97.60;;;;;;5015630;28;20433;-78
2022/02/16 04:43:50;;;;;;;1.00;0.60;;;8.90;97.60;;;;;;4996588;28;20413;-78
2022/02/16 04:46:17;;;;;;;0.70;0.40;;;8.90;97.70;;;;;;5013531;28;20490;-77
2022/02/16 04:48:43;;;;;;;1.37;0.70;;;8.90;97.80;;;;;;5014710;28;20477;-76
2022/02/16 04:51:09;;;;;;;0.70;0.40;;;8.90;98.20;;;;;;5017068;28;20510;-77
2022/02/16 04:53:35;;;;;;;0.80;0.43;;;8.90;97.90;;;;;;5015790;28;20430;-78
2022/02/16 04:56:02;;;;;;;1.50;0.50;;;8.90;98.00;;;;;;5032953;28;20464;-78
2022/02/16 04:58:32;;;;;;;0.80;0.50;;;8.90;98.10;;;;;;5015382;28;20756;-79
2022/02/16 05:00:58;;;;;;;1.00;0.50;;;8.90;98.00;;;;;;5015388;28;20452;-77
2022/02/16 05:03:29;;;;;;;0.90;0.57;;;8.90;98.00;;;;;;5003173;28;20429;-77
2022/02/16 05:05:55;;;;;;;0.80;0.50;;;8.90;98.00;;;;;;5014128;28;20429;-79
2022/02/16 05:08:21;;;;;;;2.10;0.60;;;8.90;98.10;;;;;;4995903;28;20414;-77
2022/02/16 05:10:47;;;;;;;2.20;0.70;;;8.90;98.10;;;;;;4996391;28;20191;-79
2022/02/16 05:13:22;;;;;;;0.80;0.57;;;8.90;98.40;;;;;;4981174;28;20441;-78
2022/02/16 05:15:49;;;;;;;0.90;0.53;;;9.00;98.30;;;;;;4996169;28;20481;-77
2022/02/16 05:18:14;;;;;;;0.70;0.40;;;9.00;98.30;;;;;;4979716;28;20414;-78
2022/02/16 05:20:45;;;;;;;1.33;0.60;;;9.00;98.30;;;;;;4995447;28;20191;-78
2022/02/16 05:23:11;;;;;;;0.90;0.47;;;9.00;98.30;;;;;;4995849;28;20412;-77
2022/02/16 05:25:38;;;;;;;1.00;0.50;;;9.00;98.30;;;;;;4997986;28;20878;-77
2022/02/16 05:28:06;;;;;;;0.80;0.50;;;9.00;98.40;;;;;;4999171;28;20513;-78
2022/02/16 05:30:32;;;;;;;1.10;0.60;;;9.00;98.40;;;;;;5003880;28;20464;-77
2022/02/16 05:32:58;;;;;;;1.63;0.60;;;9.00;98.30;;;;;;5022650;28;20186;-79
2022/02/16 05:35:24;;;;;;;0.90;0.70;;;9.00;98.20;;;;;;5002067;28;20456;-78
2022/02/16 05:37:50;;;;;;;1.50;0.50;;;9.10;98.20;;;;;;5019275;28;20166;-78
2022/02/16 05:40:16;;;;;;;1.20;0.57;;;9.10;98.20;;;;;;4990468;28;20183;-79
2022/02/16 05:42:45;;;;;;;1.30;0.60;;;9.10;98.10;;;;;;5009869;28;20542;-79
2022/02/16 05:45:10;;;;;;;0.90;0.50;;;9.10;98.40;;;;;;5009396;28;20432;-78
2022/02/16 05:47:38;;;;;;;0.90;0.50;;;9.10;98.00;;;;;;5019161;28;20420;-77
2022/02/16 05:50:05;;;;;;;2.50;0.60;;;9.10;97.90;;;;;;5037663;22;20468;-77
2022/02/16 05:52:30;;;;;;;1.47;0.50;;;9.20;97.90;;;;;;5034746;28;20499;-78
2022/02/16 05:54:57;;;;;;;1.30;0.70;;;9.20;97.70;;;;;;5023672;28;20459;-76
2022/02/16 05:57:23;;;;;;;1.60;0.70;;;9.20;97.60;;;;;;5036334;28;20412;-76
2022/02/16 05:59:49;;;;;;;5.73;0.80;;;9.20;97.50;;;;;;5035607;28;20627;-77
2022/02/16 06:02:15;;;;;;;1.10;0.50;;;9.20;97.50;;;;;;5016842;28;20166;-77
2022/02/16 06:04:41;;;;;;;1.10;0.50;;;9.20;97.20;;;;;;5036672;28;20497;-77
2022/02/16 06:07:08;;;;;;;1.07;0.50;;;9.30;97.20;;;;;;5054861;28;20413;-77
2022/02/16 06:09:34;;;;;;;2.17;0.70;;;9.20;97.00;;;;;;5061905;28;20419;-79
2022/02/16 06:12:00;;;;;;;0.90;0.60;;;9.30;96.90;;;;;;5061236;28;20426;-79
2022/02/16 06:14:27;;;;;;;1.13;0.53;;;9.30;96.80;;;;;;5061259;28;20460;-79
2022/02/16 06:16:59;;;;;;;1.30;0.60;;;9.40;96.90;;;;;;5070918;28;20439;-78
2022/02/16 06:19:25;;;;;;;0.80;0.50;;;9.40;96.80;;;;;;5056947;28;20489;-78
2022/02/16 06:21:52;;;;;;;1.20;0.57;;;9.40;96.60;;;;;;5039611;28;20202;-78
2022/02/16 06:24:19;;;;;;;1.57;0.60;;;9.40;96.60;;;;;;5032777;28;20429;-76
2022/02/16 06:26:46;;;;;;;0.93;0.50;;;9.40;96.50;;;;;;5014985;28;20428;-76
2022/02/16 06:29:12;;;;;;;1.00;0.60;;;9.40;96.60;;;;;;5010034;28;20854;-78
2022/02/16 06:31:59;;;;;;;1.30;0.70;;;9.40;96.60;;;;;;5037492;28;20439;-77
2022/02/16 06:34:24;;;;;;;0.97;0.60;;;9.40;96.50;;;;;;5041698;28;20458;-77
2022/02/16 06:36:50;;;;;;;1.23;0.70;;;9.50;96.50;;;;;;5059997;28;20184;-78
2022/02/16 06:39:16;;;;;;;1.00;0.60;;;9.50;96.50;;;;;;5068905;28;20835;-78
2022/02/16 06:41:42;;;;;;;1.20;0.57;;;9.50;96.50;;;;;;5038527;28;20277;-78
2022/02/16 06:44:10;;;;;;;0.70;0.40;;;9.50;96.40;;;;;;5036400;28;20515;-77
2022/02/16 06:46:36;;;;;;;1.90;0.50;;;9.50;96.40;;;;;;5038754;28;20581;-77
2022/02/16 06:49:02;;;;;;;0.90;0.50;;;9.60;96.30;;;;;;5022714;28;20415;-79
2022/02/16 06:51:30;;;;;;;1.30;0.57;;;9.50;96.40;;;;;;5037562;28;20200;-78
2022/02/16 06:53:57;;;;;;;0.90;0.53;;;9.60;96.50;;;;;;5043588;28;20424;-74
2022/02/16 06:56:24;;;;;;;1.17;0.70;;;9.60;96.50;;;;;;5035088;28;20985;-72
